Ladd AAF Airfield Fairbanks/Ft Wainwright US
ICAO: PAFB
IATA:
Category: Medium
Scheduled Services:

Elevation: 454 ft
TransAlt. 18000 ft.

Airport Communications:
FAIRBANKS APP:125.35
ATIS:134.25
CTAF:125
FAIRBANKS DEP:125.35
FAIRBANKS RDO:25.54
GND:121.7
MEDIVAC OPS:142.35
BASE OPS:118.9
PMSV METRO:128.8
TWR:125

PAFB Zoom In..

Runways:

(A) RW 07L length 8575 ft width 150 ft
---- / hdg 68

(B) RW 07R length 7280 ft width 75 ft
---- / hdg 68

(C) RW 25L length 7280 ft width 75 ft
---- / hdg 248

(D) RW 25R length 8575 ft width 150 ft
---- / hdg 248

Location; PAFB
Day. 03 / Time. 09.58 Zulu
* Altimeter: 29.43
* Temperature: WN° c. 32°f.
* Wind from: 210° Speed 02 kn.
Dewpoint: /S° c.
Visibility: 5 Statute Miles.
Clouds: Few 2000 ft.
Clouds: Broken 2400 ft.
Clouds: Broken 4400 ft.
Conditions: Light Snow.

PAFB 030958Z 21002KT 5SM -SN FEW020 BKN024 BKN044 M10/M12 A2943 RMK AO2A SLP980 WND/SLP ESTMD P0000 T11001116 $

Going to: --> -->


Wind From 210°
Speed 02 kn.

 
 
jpsmedia worldairports.se 2020   terms of use